createdAt,value
2023-10-06T00:00:15.113Z,89.52
2023-10-06T00:01:15.052Z,89.83
2023-10-06T00:02:15.048Z,90.03
2023-10-06T00:03:15.151Z,89.11
2023-10-06T00:04:14.958Z,89.11
2023-10-06T00:05:14.957Z,89.01
2023-10-06T00:06:14.963Z,88.91
2023-10-06T00:07:14.928Z,89.83
2023-10-06T00:08:14.951Z,90.13
2023-10-06T00:09:14.951Z,89.42
2023-10-06T00:10:14.923Z,89.01
2023-10-06T00:11:14.946Z,88.60
2023-10-06T00:12:14.940Z,89.56
2023-10-06T00:13:14.897Z,89.72
2023-10-06T00:14:14.909Z,89.66
2023-10-06T00:15:14.874Z,89.87
2023-10-06T00:16:15.057Z,90.07
2023-10-06T00:17:14.960Z,89.92
2023-10-06T00:18:14.868Z,89.66
2023-10-06T00:19:14.862Z,89.87
2023-10-06T00:20:14.859Z,90.07
2023-10-06T00:21:14.830Z,90.68
2023-10-06T00:22:14.825Z,90.27
2023-10-06T00:23:14.813Z,90.27
2023-10-06T00:24:15.846Z,90.17
2023-10-06T00:25:14.811Z,90.31
2023-10-06T00:26:14.806Z,90.31
2023-10-06T00:27:14.797Z,90.37
2023-10-06T00:28:14.795Z,89.76
2023-10-06T00:29:14.787Z,89.76
2023-10-06T00:30:14.782Z,90.27
2023-10-06T00:31:14.797Z,90.17
2023-10-06T00:32:14.943Z,89.87
2023-10-06T00:33:14.769Z,89.81
2023-10-06T00:34:14.745Z,89.81
2023-10-06T00:35:14.732Z,89.66
2023-10-06T00:36:14.815Z,89.66
2023-10-06T00:37:14.745Z,89.87
2023-10-06T00:38:14.728Z,89.97
2023-10-06T00:39:14.718Z,89.87
2023-10-06T00:40:14.721Z,89.81
2023-10-06T00:41:14.702Z,90.22
2023-10-06T00:42:14.695Z,90.31
2023-10-06T00:43:14.704Z,90.72
2023-10-06T00:44:14.687Z,90.42
2023-10-06T00:45:14.680Z,90.11
2023-10-06T00:46:14.684Z,90.31
2023-10-06T00:47:14.917Z,90.62
2023-10-06T00:48:14.810Z,90.97
2023-10-06T00:49:14.652Z,91.38
2023-10-06T00:50:14.656Z,91.58
2023-10-06T00:51:15.605Z,91.38
2023-10-06T00:52:14.655Z,91.88
2023-10-06T00:53:14.656Z,92.33
2023-10-06T00:54:14.633Z,91.99
2023-10-06T00:55:14.624Z,92.44
2023-10-06T00:56:14.675Z,92.94
2023-10-06T00:57:14.639Z,92.64
2023-10-06T00:58:14.600Z,93.15
2023-10-06T00:59:14.635Z,92.33
2023-10-06T01:00:14.575Z,92.33
2023-10-06T01:01:14.790Z,92.23
2023-10-06T01:02:14.593Z,92.03
2023-10-06T01:03:15.702Z,91.72
2023-10-06T01:04:14.656Z,91.93
2023-10-06T01:05:14.553Z,91.72
2023-10-06T01:06:14.567Z,91.93
2023-10-06T01:07:14.558Z,92.07
2023-10-06T01:08:14.530Z,92.33
2023-10-06T01:09:14.534Z,92.07
2023-10-06T01:10:14.520Z,92.18
2023-10-06T01:11:14.524Z,92.38
2023-10-06T01:12:14.526Z,92.89
2023-10-06T01:13:15.529Z,92.99
2023-10-06T01:14:14.485Z,92.68
2023-10-06T01:15:14.493Z,92.99
2023-10-06T01:16:14.528Z,92.99
2023-10-06T01:17:15.559Z,92.89
2023-10-06T01:18:14.506Z,92.89
2023-10-06T01:19:14.464Z,92.68
2023-10-06T01:20:14.549Z,92.27
2023-10-06T01:21:14.442Z,92.18
2023-10-06T01:22:14.435Z,92.27
2023-10-06T01:23:14.469Z,92.03
2023-10-06T01:24:14.446Z,92.13
2023-10-06T01:25:14.431Z,91.93
2023-10-06T01:26:14.426Z,91.42
2023-10-06T01:27:14.408Z,91.31
2023-10-06T01:28:14.492Z,91.52
2023-10-06T01:29:14.387Z,91.42
2023-10-06T01:30:14.382Z,91.93
2023-10-06T01:31:14.379Z,91.97
2023-10-06T01:32:15.381Z,92.27
2023-10-06T01:33:14.391Z,92.13
2023-10-06T01:34:14.357Z,91.62
2023-10-06T01:35:14.377Z,91.31
2023-10-06T01:36:14.444Z,91.62
2023-10-06T01:37:14.336Z,91.62
2023-10-06T01:38:14.339Z,91.42
2023-10-06T01:39:14.339Z,91.52
2023-10-06T01:40:14.315Z,90.70
2023-10-06T01:41:14.309Z,91.22
2023-10-06T01:42:14.305Z,90.81
2023-10-06T01:43:14.291Z,90.70
2023-10-06T01:44:14.391Z,90.60
2023-10-06T01:45:14.301Z,90.70
2023-10-06T01:46:14.289Z,90.81
2023-10-06T01:47:15.270Z,91.01
2023-10-06T01:48:14.272Z,91.62
2023-10-06T01:49:14.840Z,91.31
2023-10-06T01:50:15.251Z,90.86
2023-10-06T01:51:14.250Z,90.70
2023-10-06T01:52:14.340Z,91.42
2023-10-06T01:53:14.224Z,91.52
2023-10-06T01:54:14.268Z,91.31
2023-10-06T01:55:14.247Z,91.62
2023-10-06T01:56:14.226Z,91.11
2023-10-06T01:57:14.214Z,90.60
2023-10-06T01:58:14.197Z,91.22
2023-10-06T01:59:14.209Z,90.70
2023-10-06T02:00:14.204Z,90.81
2023-10-06T02:01:14.208Z,91.22
2023-10-06T02:02:14.552Z,91.36
2023-10-06T02:03:14.247Z,91.36
2023-10-06T02:04:14.169Z,91.31
2023-10-06T02:05:14.194Z,91.01
2023-10-06T02:06:14.180Z,90.91
2023-10-06T02:07:14.169Z,90.70
2023-10-06T02:08:14.236Z,90.85
2023-10-06T02:09:14.124Z,90.75
2023-10-06T02:10:14.132Z,90.64
2023-10-06T02:11:14.220Z,90.60
2023-10-06T02:12:14.211Z,91.26
2023-10-06T02:13:14.149Z,91.05
2023-10-06T02:14:14.094Z,91.46
2023-10-06T02:15:14.084Z,91.46
2023-10-06T02:16:14.187Z,91.56
2023-10-06T02:17:14.184Z,91.66
2023-10-06T02:18:14.126Z,91.71
2023-10-06T02:19:14.069Z,91.81
2023-10-06T02:20:14.076Z,91.61
2023-10-06T02:21:14.071Z,91.81
2023-10-06T02:22:14.084Z,92.01
2023-10-06T02:23:14.063Z,92.42
2023-10-06T02:24:14.143Z,93.07
2023-10-06T02:25:14.068Z,93.07
2023-10-06T02:26:14.019Z,93.59
2023-10-06T02:27:14.019Z,93.79
2023-10-06T02:28:14.001Z,93.99
2023-10-06T02:29:14.030Z,94.09
2023-10-06T02:30:13.988Z,94.04
2023-10-06T02:31:14.100Z,93.84
2023-10-06T02:32:14.012Z,94.34
2023-10-06T02:33:13.973Z,93.93
2023-10-06T02:34:13.988Z,94.24
2023-10-06T02:35:14.188Z,94.65
2023-10-06T02:36:13.977Z,94.75
2023-10-06T02:37:13.958Z,94.55
2023-10-06T02:38:13.934Z,94.79
2023-10-06T02:39:13.932Z,94.75
2023-10-06T02:40:14.031Z,94.24
2023-10-06T02:41:13.933Z,94.34
2023-10-06T02:42:13.911Z,94.24
2023-10-06T02:43:13.921Z,94.65
2023-10-06T02:44:13.900Z,94.59
2023-10-06T02:45:13.885Z,94.70
2023-10-06T02:46:13.880Z,94.34
2023-10-06T02:47:13.916Z,94.34
2023-10-06T02:48:13.893Z,94.08
2023-10-06T02:49:13.888Z,94.29
2023-10-06T02:50:13.904Z,94.08
2023-10-06T02:51:13.845Z,93.88
2023-10-06T02:52:13.859Z,94.59
2023-10-06T02:53:13.864Z,94.79
2023-10-06T02:54:13.882Z,94.79
2023-10-06T02:55:13.833Z,94.38
2023-10-06T02:56:13.917Z,94.29
2023-10-06T02:57:13.809Z,94.29
2023-10-06T02:58:13.818Z,94.29
2023-10-06T02:59:13.842Z,94.49
2023-10-06T03:00:13.812Z,94.33
2023-10-06T03:01:13.810Z,94.02
2023-10-06T03:02:13.885Z,93.51
2023-10-06T03:03:14.115Z,94.08
2023-10-06T03:04:13.761Z,94.23
2023-10-06T03:05:13.776Z,93.92
2023-10-06T03:06:13.757Z,94.02
2023-10-06T03:07:13.756Z,94.23
2023-10-06T03:08:13.763Z,94.12
2023-10-06T03:09:13.746Z,94.02
2023-10-06T03:10:13.739Z,93.82
2023-10-06T03:11:13.814Z,93.71
2023-10-06T03:12:13.808Z,94.02
2023-10-06T03:13:13.704Z,93.82
2023-10-06T03:14:13.719Z,94.12
2023-10-06T03:15:13.684Z,93.62
2023-10-06T03:16:13.712Z,93.51
2023-10-06T03:17:14.881Z,93.55
2023-10-06T03:18:13.745Z,93.76
2023-10-06T03:19:13.683Z,93.45
2023-10-06T03:20:13.734Z,93.45
2023-10-06T03:21:13.655Z,93.31
2023-10-06T03:22:13.724Z,93.55
2023-10-06T03:23:13.666Z,93.45
2023-10-06T03:24:13.630Z,93.55
2023-10-06T03:25:13.625Z,93.96
2023-10-06T03:26:13.667Z,93.96
2023-10-06T03:27:13.641Z,93.70
2023-10-06T03:28:13.725Z,93.70
2023-10-06T03:29:13.640Z,94.21
2023-10-06T03:30:13.599Z,94.17
2023-10-06T03:31:13.583Z,94.52
2023-10-06T03:32:13.582Z,94.48
2023-10-06T03:33:14.589Z,94.58
2023-10-06T03:34:13.561Z,94.52
2023-10-06T03:35:13.572Z,94.52
2023-10-06T03:36:13.556Z,94.52
2023-10-06T03:37:13.623Z,94.52
2023-10-06T03:38:13.552Z,94.82
2023-10-06T03:39:13.535Z,94.52
2023-10-06T03:40:13.533Z,95.85
2023-10-06T03:41:13.534Z,95.34
2023-10-06T03:42:13.528Z,95.75
2023-10-06T03:43:13.517Z,96.10
2023-10-06T03:44:13.781Z,96.51
2023-10-06T03:45:13.501Z,96.92
2023-10-06T03:46:13.643Z,97.08
2023-10-06T03:47:13.511Z,97.28
2023-10-06T03:48:13.493Z,97.49
2023-10-06T03:49:13.477Z,96.97
2023-10-06T03:50:13.505Z,97.28
2023-10-06T03:51:13.460Z,96.56
2023-10-06T03:52:13.448Z,96.20
2023-10-06T03:53:13.563Z,96.05
2023-10-06T03:54:13.458Z,95.23
2023-10-06T03:55:13.447Z,95.69
2023-10-06T03:56:13.450Z,95.48
2023-10-06T03:57:13.422Z,95.13
2023-10-06T03:58:13.430Z,96.00
2023-10-06T03:59:13.440Z,95.48
2023-10-06T04:00:13.508Z,95.48
2023-10-06T04:01:13.400Z,95.38
2023-10-06T04:02:13.542Z,95.48
2023-10-06T04:03:13.515Z,95.38
2023-10-06T04:04:13.368Z,95.69
2023-10-06T04:05:13.380Z,95.44
2023-10-06T04:06:13.369Z,95.48
2023-10-06T04:07:13.389Z,95.89
2023-10-06T04:08:13.395Z,97.33
2023-10-06T04:09:13.347Z,97.02
2023-10-06T04:10:13.354Z,97.16
2023-10-06T04:11:13.424Z,96.96
2023-10-06T04:12:13.329Z,98.04
2023-10-06T04:13:13.343Z,97.67
2023-10-06T04:14:13.343Z,97.33
2023-10-06T04:15:13.311Z,97.42
2023-10-06T04:16:13.390Z,98.35
2023-10-06T04:17:13.323Z,97.98
2023-10-06T04:18:13.290Z,97.63
2023-10-06T04:19:13.277Z,98.55
2023-10-06T04:20:13.331Z,97.33
2023-10-06T04:21:13.272Z,97.83
2023-10-06T04:22:13.326Z,98.49
2023-10-06T04:23:13.282Z,98.08
2023-10-06T04:24:13.245Z,98.60
2023-10-06T04:25:13.253Z,98.49
2023-10-06T04:26:14.291Z,98.08
2023-10-06T04:27:13.243Z,98.49
2023-10-06T04:28:13.299Z,98.60
2023-10-06T04:29:13.308Z,98.70
2023-10-06T04:30:13.223Z,98.39
2023-10-06T04:31:13.232Z,97.37
2023-10-06T04:32:13.295Z,97.78
2023-10-06T04:33:13.202Z,97.42
2023-10-06T04:34:13.185Z,96.86
2023-10-06T04:35:13.223Z,97.47
2023-10-06T04:36:13.184Z,97.67
2023-10-06T04:37:13.157Z,96.96
2023-10-06T04:38:13.186Z,97.67
2023-10-06T04:39:13.140Z,97.88
2023-10-06T04:40:13.164Z,96.96
2023-10-06T04:41:13.175Z,96.96
2023-10-06T04:42:13.128Z,97.37
2023-10-06T04:43:13.293Z,97.72
2023-10-06T04:44:13.128Z,97.78
2023-10-06T04:45:13.101Z,97.92
2023-10-06T04:46:13.109Z,97.52
2023-10-06T04:47:13.114Z,97.72
2023-10-06T04:48:13.174Z,96.66
2023-10-06T04:49:13.091Z,96.80
2023-10-06T04:50:13.161Z,97.11
2023-10-06T04:51:15.971Z,97.11
2023-10-06T04:53:22.207Z,97.41
2023-10-06T04:54:24.783Z,98.03
2023-10-06T04:55:25.722Z,98.07
2023-10-06T04:56:22.992Z,98.07
2023-10-06T04:57:23.004Z,97.72
2023-10-06T04:58:24.720Z,99.05
2023-10-06T04:59:24.072Z,98.49
2023-10-06T05:00:22.958Z,98.65
2023-10-06T05:01:22.969Z,99.15
2023-10-06T05:02:22.990Z,99.36
2023-10-06T05:03:23.109Z,99.46
2023-10-06T05:04:23.844Z,99.20
2023-10-06T05:05:24.564Z,99.77
2023-10-06T05:06:24.692Z,99.82
2023-10-06T05:07:24.719Z,99.30
2023-10-06T05:08:24.033Z,99.56
2023-10-06T05:09:22.909Z,99.30
2023-10-06T05:10:22.903Z,99.51
2023-10-06T05:11:23.017Z,99.82
2023-10-06T05:12:22.885Z,99.91
2023-10-06T05:13:22.877Z,99.91
2023-10-06T05:14:22.886Z,99.66
2023-10-06T05:15:22.877Z,99.66
2023-10-06T05:16:22.916Z,99.91
2023-10-06T05:17:22.893Z,99.71
2023-10-06T05:18:22.860Z,99.82
2023-10-06T05:19:22.936Z,99.77
2023-10-06T05:20:22.835Z,99.36
2023-10-06T05:21:22.835Z,99.71
2023-10-06T05:22:22.820Z,99.15
2023-10-06T05:23:22.811Z,99.41
2023-10-06T05:24:22.829Z,99.26
2023-10-06T05:25:22.810Z,99.26
2023-10-06T05:26:22.827Z,99.20
2023-10-06T05:27:22.795Z,99.15
2023-10-06T05:28:22.780Z,99.20
2023-10-06T05:29:22.829Z,99.30
2023-10-06T05:30:22.769Z,99.10
2023-10-06T05:31:22.783Z,99.26
2023-10-06T05:32:22.819Z,99.15
2023-10-06T05:33:22.773Z,98.65
2023-10-06T05:34:22.742Z,99.41
2023-10-06T05:35:22.825Z,98.44
2023-10-06T05:36:22.744Z,97.82
2023-10-06T05:37:22.706Z,97.72
2023-10-06T05:38:22.727Z,98.33
2023-10-06T05:39:22.704Z,97.97
2023-10-06T05:40:22.695Z,98.54
2023-10-06T05:41:22.760Z,98.33
2023-10-06T05:42:22.679Z,98.24
2023-10-06T05:43:23.687Z,98.74
2023-10-06T05:44:22.768Z,98.44
2023-10-06T05:45:22.687Z,98.74
2023-10-06T05:46:22.742Z,98.03
2023-10-06T05:47:22.665Z,98.54
2023-10-06T05:48:22.650Z,99.36
2023-10-06T05:49:22.652Z,99.51
2023-10-06T05:50:22.644Z,99.26
2023-10-06T05:51:22.879Z,99.41
2023-10-06T05:52:22.624Z,99.77
2023-10-06T05:53:22.655Z,99.87
2023-10-06T05:54:22.613Z,99.99
2023-10-06T05:55:22.624Z,99.99
2023-10-06T05:56:22.640Z,99.99
2023-10-06T05:57:22.587Z,99.98
2023-10-06T05:58:22.576Z,99.99
2023-10-06T05:59:22.600Z,99.99
2023-10-06T06:00:22.574Z,99.99
2023-10-06T06:01:22.613Z,99.99
2023-10-06T06:02:22.570Z,99.99
2023-10-06T06:03:22.591Z,99.99
2023-10-06T06:04:22.543Z,99.99
2023-10-06T06:05:22.536Z,99.99
2023-10-06T06:06:22.521Z,99.99
2023-10-06T06:07:22.653Z,99.99
2023-10-06T06:08:22.520Z,99.99
2023-10-06T06:09:22.832Z,99.99
2023-10-06T06:10:22.502Z,99.99
2023-10-06T06:11:22.674Z,99.99
2023-10-06T06:12:22.603Z,99.99
2023-10-06T06:13:23.262Z,99.99
2023-10-06T06:14:23.484Z,99.99
2023-10-06T06:15:22.469Z,99.99
2023-10-06T06:16:22.510Z,99.99
2023-10-06T06:17:22.473Z,99.99
2023-10-06T06:18:22.474Z,99.99
2023-10-06T06:19:22.432Z,99.99
2023-10-06T06:20:22.462Z,99.99
2023-10-06T06:21:22.424Z,99.99
2023-10-06T06:22:22.419Z,99.99
2023-10-06T06:23:22.561Z,99.99
2023-10-06T06:24:22.416Z,99.99
2023-10-06T06:25:22.402Z,99.99
2023-10-06T06:26:22.421Z,99.99
2023-10-06T06:27:22.387Z,99.99
2023-10-06T06:28:22.381Z,99.99
2023-10-06T06:29:22.414Z,99.99
2023-10-06T06:30:22.367Z,99.99
2023-10-06T06:31:22.443Z,99.99
2023-10-06T06:32:22.373Z,99.99
2023-10-06T06:33:22.352Z,99.99
2023-10-06T06:34:22.362Z,99.99
2023-10-06T06:35:22.342Z,99.99
2023-10-06T06:36:22.355Z,99.99
2023-10-06T06:37:22.321Z,99.99
2023-10-06T06:38:22.433Z,99.99
2023-10-06T06:39:23.907Z,99.99
2023-10-06T06:40:22.307Z,99.99
2023-10-06T06:41:22.332Z,99.99
2023-10-06T06:42:22.299Z,99.99
2023-10-06T06:43:22.293Z,99.99
2023-10-06T06:44:22.289Z,99.99
2023-10-06T06:45:22.300Z,99.99
2023-10-06T06:46:22.261Z,99.99
2023-10-06T06:47:22.301Z,99.99
2023-10-06T06:48:22.275Z,99.99
2023-10-06T06:49:22.256Z,99.99
2023-10-06T06:50:22.266Z,99.99
2023-10-06T06:51:22.232Z,99.99
2023-10-06T06:52:22.224Z,99.99
2023-10-06T06:53:22.222Z,99.99
2023-10-06T06:54:22.213Z,99.99
2023-10-06T06:55:22.304Z,99.99
2023-10-06T06:56:22.300Z,99.93
2023-10-06T06:57:22.193Z,99.99
2023-10-06T06:58:22.176Z,99.99
2023-10-06T06:59:22.199Z,99.99
2023-10-06T07:00:22.176Z,99.98
2023-10-06T07:01:22.372Z,99.99
2023-10-06T07:02:22.228Z,99.99
2023-10-06T07:03:22.173Z,99.99
2023-10-06T07:04:22.146Z,99.93
2023-10-06T07:05:22.138Z,99.99
2023-10-06T07:06:22.151Z,99.93
2023-10-06T07:07:22.130Z,99.99
2023-10-06T07:08:22.171Z,99.99
2023-10-06T07:09:22.127Z,99.99
2023-10-06T07:10:22.127Z,99.99
2023-10-06T07:11:22.264Z,99.99
2023-10-06T07:12:22.108Z,99.99
2023-10-06T07:13:22.090Z,99.99
2023-10-06T07:14:22.106Z,99.99
2023-10-06T07:15:22.076Z,99.84
2023-10-06T07:16:22.084Z,99.99
2023-10-06T07:17:22.113Z,99.63
2023-10-06T07:18:22.133Z,99.99
2023-10-06T07:19:22.056Z,99.99
2023-10-06T07:20:22.111Z,99.84
2023-10-06T07:21:22.070Z,99.99
2023-10-06T07:22:22.026Z,99.99
2023-10-06T07:23:22.057Z,99.99
2023-10-06T07:24:22.012Z,99.99
2023-10-06T07:25:22.013Z,99.52
2023-10-06T07:26:22.039Z,99.93
2023-10-06T07:27:22.114Z,99.99
2023-10-06T07:28:21.992Z,99.99
2023-10-06T07:29:22.028Z,99.93
2023-10-06T07:30:22.078Z,99.99
2023-10-06T07:31:22.023Z,99.84
2023-10-06T07:32:21.991Z,99.99
2023-10-06T07:33:22.046Z,99.73
2023-10-06T07:34:21.947Z,99.68
2023-10-06T07:35:21.977Z,99.68
2023-10-06T07:36:21.958Z,99.38
2023-10-06T07:37:21.932Z,98.77
2023-10-06T07:38:21.952Z,98.86
2023-10-06T07:39:22.165Z,99.99
2023-10-06T07:40:21.936Z,99.02
2023-10-06T07:41:21.980Z,98.36
2023-10-06T07:42:21.900Z,97.80
2023-10-06T07:43:21.992Z,98.00
2023-10-06T07:44:21.911Z,97.80
2023-10-06T07:45:23.514Z,97.49
2023-10-06T07:46:21.955Z,97.70
2023-10-06T07:47:21.919Z,97.90
2023-10-06T07:48:21.858Z,97.80
2023-10-06T07:49:21.859Z,98.72
2023-10-06T07:50:21.903Z,98.00
2023-10-06T07:51:21.848Z,97.55
2023-10-06T07:52:21.830Z,98.31
2023-10-06T07:53:21.839Z,97.90
2023-10-06T07:54:21.823Z,97.70
2023-10-06T07:55:21.820Z,97.14
2023-10-06T07:56:21.880Z,97.86
2023-10-06T07:57:21.798Z,96.94
2023-10-06T07:58:21.789Z,97.14
2023-10-06T07:59:21.947Z,97.24
2023-10-06T08:00:21.792Z,96.38
2023-10-06T08:01:22.253Z,96.28
2023-10-06T08:02:21.784Z,95.42
2023-10-06T08:03:21.809Z,95.62
2023-10-06T08:04:21.741Z,95.42
2023-10-06T08:05:21.798Z,94.76
2023-10-06T08:06:21.808Z,93.41
2023-10-06T08:07:21.735Z,90.97
2023-10-06T08:08:22.722Z,90.46
2023-10-06T08:09:21.727Z,91.16
2023-10-06T08:10:21.708Z,91.97
2023-10-06T08:11:22.966Z,92.27
2023-10-06T08:12:22.694Z,93.03
2023-10-06T08:13:21.689Z,92.89
2023-10-06T08:14:21.687Z,91.81
2023-10-06T08:15:21.901Z,93.18
2023-10-06T08:16:21.715Z,93.24
2023-10-06T08:17:21.840Z,93.54
2023-10-06T08:18:21.654Z,93.13
2023-10-06T08:19:21.694Z,92.72
2023-10-06T08:20:21.693Z,92.93
2023-10-06T08:21:21.659Z,93.09
2023-10-06T08:22:21.674Z,91.93
2023-10-06T08:23:21.666Z,92.27
2023-10-06T08:24:21.627Z,92.27
2023-10-06T08:25:21.616Z,92.18
2023-10-06T08:26:21.626Z,92.48
2023-10-06T08:27:21.632Z,92.68
2023-10-06T08:28:21.616Z,92.13
2023-10-06T08:29:21.626Z,91.62
2023-10-06T08:30:21.782Z,91.11
2023-10-06T08:31:21.711Z,91.22
2023-10-06T08:32:21.601Z,91.27
2023-10-06T08:33:21.740Z,90.42
2023-10-06T08:34:21.570Z,88.65
2023-10-06T08:35:22.759Z,88.79
2023-10-06T08:36:23.686Z,90.11
2023-10-06T08:37:23.189Z,90.22
2023-10-06T08:38:21.594Z,88.63
2023-10-06T08:39:21.527Z,89.69
2023-10-06T08:40:21.530Z,90.05
2023-10-06T08:41:21.691Z,90.25
2023-10-06T08:42:21.510Z,89.95
2023-10-06T08:43:21.499Z,89.34
2023-10-06T08:44:21.500Z,90.16
2023-10-06T08:45:21.634Z,89.89
2023-10-06T08:46:21.561Z,90.40
2023-10-06T08:47:29.638Z,90.40
2023-10-06T08:48:23.499Z,87.85
2023-10-06T08:49:21.476Z,86.29
2023-10-06T08:50:21.482Z,85.11
2023-10-06T08:51:21.445Z,85.92
2023-10-06T08:52:21.440Z,85.39
2023-10-06T08:53:21.444Z,83.47
2023-10-06T08:54:21.425Z,82.11
2023-10-06T08:55:21.405Z,82.89
2023-10-06T08:56:21.422Z,82.17
2023-10-06T08:57:21.395Z,82.17
2023-10-06T08:58:21.445Z,81.97
2023-10-06T08:59:21.503Z,81.26
2023-10-06T09:00:21.397Z,81.57
2023-10-06T09:01:21.384Z,81.16
2023-10-06T09:02:21.423Z,81.74
2023-10-06T09:03:21.560Z,82.66
2023-10-06T09:04:21.374Z,82.96
2023-10-06T09:05:21.423Z,83.00
2023-10-06T09:06:21.322Z,82.31
2023-10-06T09:07:21.321Z,79.80
2023-10-06T09:08:21.350Z,79.87
2023-10-06T09:09:21.338Z,77.87
2023-10-06T09:10:21.317Z,77.03
2023-10-06T09:11:21.361Z,76.18
2023-10-06T09:12:21.295Z,75.78
2023-10-06T09:13:21.283Z,75.40
2023-10-06T09:14:21.300Z,73.75
2023-10-06T09:15:21.274Z,72.17
2023-10-06T09:16:21.344Z,71.87
2023-10-06T09:17:21.292Z,71.73
2023-10-06T09:18:21.266Z,71.30
2023-10-06T09:19:21.353Z,71.03
2023-10-06T09:20:30.336Z,70.83
2023-10-06T09:21:23.249Z,71.33
2023-10-06T09:22:21.222Z,71.37
2023-10-06T09:23:21.333Z,71.77
2023-10-06T09:24:21.214Z,72.54
2023-10-06T09:25:21.228Z,72.48
2023-10-06T09:26:22.286Z,73.82
2023-10-06T09:27:21.191Z,73.93
2023-10-06T09:28:21.187Z,73.79
2023-10-06T09:29:21.327Z,73.58
2023-10-06T09:30:21.166Z,72.81
2023-10-06T09:31:21.215Z,72.48
2023-10-06T09:32:21.202Z,73.79
2023-10-06T09:33:21.145Z,74.73
2023-10-06T09:34:21.159Z,74.93
2023-10-06T09:35:21.291Z,75.40
2023-10-06T09:36:36.296Z,75.24
2023-10-06T09:37:23.127Z,75.27
2023-10-06T09:38:21.241Z,76.05
2023-10-06T09:39:21.178Z,77.64
2023-10-06T09:40:21.309Z,77.95
2023-10-06T09:41:21.154Z,78.45
2023-10-06T09:42:21.088Z,78.96
2023-10-06T09:43:22.676Z,80.52
2023-10-06T09:44:22.142Z,80.68
2023-10-06T09:45:21.094Z,79.29
2023-10-06T09:46:21.106Z,76.72
2023-10-06T09:47:21.073Z,73.62
2023-10-06T09:48:21.198Z,71.91
2023-10-06T09:49:21.035Z,69.42
2023-10-06T09:50:21.090Z,69.06
2023-10-06T09:51:21.126Z,68.05
2023-10-06T09:52:21.030Z,65.78
2023-10-06T09:53:21.098Z,64.95
2023-10-06T09:54:21.012Z,64.28
2023-10-06T09:55:21.000Z,64.28
2023-10-06T09:56:21.039Z,62.35
2023-10-06T09:57:20.979Z,61.58
2023-10-06T09:58:20.970Z,64.43
2023-10-06T09:59:20.986Z,65.67
2023-10-06T10:00:20.955Z,65.77
2023-10-06T10:01:21.016Z,66.84
2023-10-06T10:02:21.067Z,67.41
2023-10-06T10:03:21.049Z,67.14
2023-10-06T10:04:20.979Z,64.78
2023-10-06T10:05:20.959Z,63.98
2023-10-06T10:06:20.931Z,64.04
2023-10-06T10:07:21.087Z,64.70
2023-10-06T10:08:20.948Z,66.67
2023-10-06T10:09:20.892Z,68.88
2023-10-06T10:10:20.903Z,69.72
2023-10-06T10:11:20.973Z,70.26
2023-10-06T10:12:20.893Z,68.98
2023-10-06T10:13:20.879Z,65.07
2023-10-06T10:14:20.895Z,64.21
2023-10-06T10:15:22.264Z,63.17
2023-10-06T10:16:20.872Z,62.40
2023-10-06T10:17:20.980Z,62.40
2023-10-06T10:18:20.872Z,63.70
2023-10-06T10:19:20.823Z,62.63
2023-10-06T10:20:20.871Z,63.40
2023-10-06T10:21:20.818Z,63.56
2023-10-06T10:22:20.809Z,64.57
2023-10-06T10:23:20.962Z,64.90
2023-10-06T10:25:05.516Z,64.80
2023-10-06T10:25:25.301Z,65.14
2023-10-06T10:26:21.807Z,62.87
2023-10-06T10:27:20.784Z,61.51
2023-10-06T10:28:20.959Z,61.24
2023-10-06T10:29:20.778Z,61.57
2023-10-06T10:30:20.815Z,62.50
2023-10-06T10:31:20.767Z,63.23
2023-10-06T10:32:20.773Z,63.03
2023-10-06T10:33:20.871Z,62.80
2023-10-06T10:34:25.004Z,62.67
2023-10-06T10:35:21.858Z,61.81
2023-10-06T10:36:20.722Z,61.44
2023-10-06T10:37:20.719Z,62.30
2023-10-06T10:38:20.746Z,62.70
2023-10-06T10:39:20.849Z,63.84
2023-10-06T10:40:20.719Z,63.43
2023-10-06T10:41:20.703Z,63.53
2023-10-06T10:42:20.690Z,64.14
2023-10-06T10:43:20.673Z,63.84
2023-10-06T10:44:26.527Z,62.70
2023-10-06T10:45:22.670Z,63.53
2023-10-06T10:46:20.670Z,63.23
2023-10-06T10:47:20.696Z,63.13
2023-10-06T10:48:20.675Z,63.93
2023-10-06T10:49:20.634Z,64.07
2023-10-06T10:50:20.751Z,64.20
2023-10-06T10:51:20.629Z,64.86
2023-10-06T10:52:20.619Z,67.44
2023-10-06T10:53:20.641Z,68.58
2023-10-06T10:54:20.602Z,68.78
2023-10-06T10:55:20.722Z,69.72
2023-10-06T10:56:20.657Z,69.12
2023-10-06T10:57:20.598Z,69.15
2023-10-06T10:58:20.590Z,67.84
2023-10-06T10:59:20.592Z,66.87
2023-10-06T11:00:20.569Z,66.71
2023-10-06T11:01:20.575Z,64.80
2023-10-06T11:02:20.589Z,64.54
2023-10-06T11:03:20.657Z,63.90
2023-10-06T11:04:20.538Z,63.70
2023-10-06T11:05:20.644Z,63.81
2023-10-06T11:06:20.532Z,62.97
2023-10-06T11:07:20.538Z,62.34
2023-10-06T11:08:20.557Z,61.44
2023-10-06T11:09:20.513Z,61.81
2023-10-06T11:10:20.514Z,60.08
2023-10-06T11:11:20.549Z,61.18
2023-10-06T11:12:24.836Z,60.81
2023-10-06T11:13:22.500Z,60.81
2023-10-06T11:14:20.543Z,61.64
2023-10-06T11:15:20.530Z,61.87
2023-10-06T11:16:20.571Z,61.50
2023-10-06T11:17:20.667Z,62.00
2023-10-06T11:18:20.705Z,62.40
2023-10-06T11:19:20.491Z,62.77
2023-10-06T11:20:20.509Z,60.14
2023-10-06T11:21:20.515Z,60.61
2023-10-06T11:22:20.510Z,60.91
2023-10-06T11:23:20.518Z,61.14
2023-10-06T11:24:20.411Z,60.01
2023-10-06T11:25:20.443Z,60.48
2023-10-06T11:26:20.443Z,59.38
2023-10-06T11:27:20.419Z,59.38
2023-10-06T11:28:20.513Z,60.03
2023-10-06T11:29:20.479Z,60.24
2023-10-06T11:30:20.490Z,60.24
2023-10-06T11:31:20.373Z,60.44
2023-10-06T11:32:20.448Z,59.83
2023-10-06T11:33:20.437Z,59.68
2023-10-06T11:34:20.424Z,59.05
2023-10-06T11:35:20.369Z,58.12
2023-10-06T11:36:20.412Z,57.92
2023-10-06T11:37:21.928Z,57.82
2023-10-06T11:38:21.127Z,58.52
2023-10-06T11:39:20.439Z,58.52
2023-10-06T11:40:20.335Z,57.15
2023-10-06T11:41:20.390Z,56.39
2023-10-06T11:42:20.303Z,55.07
2023-10-06T11:43:20.409Z,55.66
2023-10-06T11:44:20.302Z,56.82
2023-10-06T11:45:20.310Z,57.09
2023-10-06T11:46:20.275Z,56.49
2023-10-06T11:47:20.320Z,55.69
2023-10-06T11:48:20.288Z,55.62
2023-10-06T11:49:20.283Z,55.27
2023-10-06T11:50:20.314Z,53.06
2023-10-06T11:51:20.284Z,52.55
2023-10-06T11:52:20.254Z,50.92
2023-10-06T11:53:20.259Z,49.88
2023-10-06T11:54:20.235Z,48.71
2023-10-06T11:55:20.241Z,50.30
2023-10-06T11:56:20.282Z,50.40
2023-10-06T11:57:20.209Z,49.93
2023-10-06T11:58:20.202Z,50.00
2023-10-06T11:59:20.337Z,49.08
2023-10-06T12:00:20.221Z,50.38
2023-10-06T12:01:20.238Z,50.05
2023-10-06T12:02:20.230Z,49.33
2023-10-06T12:03:20.198Z,49.21
2023-10-06T12:04:20.221Z,49.76
2023-10-06T12:05:20.259Z,49.61
2023-10-06T12:06:20.173Z,49.04
2023-10-06T12:07:20.141Z,48.22
2023-10-06T12:08:20.176Z,47.56
2023-10-06T12:09:20.140Z,48.71
2023-10-06T12:10:20.148Z,49.21
2023-10-06T12:11:20.225Z,50.20
2023-10-06T12:12:20.119Z,50.10
2023-10-06T12:13:20.124Z,48.75
2023-10-06T12:14:20.141Z,49.75
2023-10-06T12:15:20.217Z,50.25
2023-10-06T12:16:20.106Z,50.43
2023-10-06T12:17:20.110Z,49.40
2023-10-06T12:18:20.135Z,49.51
2023-10-06T12:19:20.092Z,50.13
2023-10-06T12:20:20.249Z,50.32
2023-10-06T12:21:20.057Z,50.52
2023-10-06T12:22:30.052Z,50.70
2023-10-06T12:23:22.224Z,51.17
2023-10-06T12:24:20.042Z,50.65
2023-10-06T12:25:20.052Z,51.40
2023-10-06T12:26:20.059Z,51.02
2023-10-06T12:27:20.023Z,51.79
2023-10-06T12:28:20.019Z,51.72
2023-10-06T12:29:20.037Z,51.79
2023-10-06T12:30:20.049Z,51.10
2023-10-06T12:31:20.118Z,51.47
2023-10-06T12:32:20.034Z,50.67
2023-10-06T12:33:20.008Z,50.47
2023-10-06T12:34:20.000Z,51.50
2023-10-06T12:35:20.227Z,52.55
2023-10-06T12:36:19.972Z,51.29
2023-10-06T12:37:19.953Z,52.17
2023-10-06T12:38:19.972Z,50.95
2023-10-06T12:39:19.945Z,50.15
2023-10-06T12:40:19.933Z,50.05
2023-10-06T12:41:19.933Z,51.52
2023-10-06T12:42:19.915Z,51.15
2023-10-06T12:43:19.940Z,51.25
2023-10-06T12:44:19.918Z,52.97
2023-10-06T12:45:20.140Z,53.07
2023-10-06T12:46:19.906Z,52.74
2023-10-06T12:47:20.001Z,52.74
2023-10-06T12:48:19.920Z,53.14
2023-10-06T12:49:19.914Z,52.57
2023-10-06T12:50:20.019Z,53.89
2023-10-06T12:51:19.873Z,53.69
2023-10-06T12:52:19.852Z,53.77
2023-10-06T12:53:19.916Z,53.27